»·PEaware :: N9568U KSNA-KCRQ

N9568U :: KSNA-KCRQ

FLIGHT INFORMATION

Flight Status: Arrived
Operator: Privately registered:
United States
More flights under this callsign
Pilot: Alex Montgomery (6848)
Aircraft: PIPER PA-28 CHEROKEE ARCHER
(P28A)
More flights by this aircraft type
Origin: KSNA John Wayne-Orange Co
United States
Destination: KCRQ McClellan-Palomar
United States
More flights between these airports :: More routes between these airports
Route: +V23 OCN
File this flight plan on PilotEdge
Remarks: I-2 Rating
Altitude:
(Current/Filed)
5,000ft
Speed:
(Current/Filed)
115kts
Departed: 12-Aug-17 08:04 PM
Arrived: 12-Aug-17 08:43 PM
Distance/Time
Traveled:
44nm/0:39
Distance/Time
To Go:
Arrived

Flight Plot

Page will automatically refresh every two minutes.


Map Options




Map Legend


Flown Route
Filed Route
Departure Airport
Arrival Airport
Navaid (VOR, NDB)
Fix

Horizontal Profiles

Position Reports

Time Latitude Longitude Heading Altitude Ground
Speed
12-Aug-17 19:49 33.666412 -117.873070 219 59ft 0kts
12-Aug-17 19:50 33.666409 -117.873073 219 59ft 0kts
12-Aug-17 19:51 33.666406 -117.873075 219 59ft 0kts
12-Aug-17 19:52 33.666404 -117.873078 219 59ft 0kts
12-Aug-17 19:53 33.666401 -117.873081 219 59ft 0kts
12-Aug-17 19:54 33.666398 -117.873084 219 59ft 0kts
12-Aug-17 19:55 33.666395 -117.873086 219 59ft 0kts
12-Aug-17 19:56 33.666865 -117.873101 16 59ft 11kts
12-Aug-17 19:57 33.669732 -117.870652 35 59ft 16kts
12-Aug-17 19:58 33.673065 -117.867042 47 59ft 13kts
12-Aug-17 19:59 33.675172 -117.866366 26 59ft 10kts
12-Aug-17 20:00 33.679058 -117.864059 26 59ft 13kts
12-Aug-17 20:01 33.679731 -117.863871 291 59ft 0kts
12-Aug-17 20:02 33.679733 -117.863875 291 59ft 0kts
12-Aug-17 20:03 33.679735 -117.863881 291 59ft 0kts
12-Aug-17 20:04 33.679739 -117.863894 291 59ft 0kts
12-Aug-17 20:05 33.679740 -117.863899 291 59ft 0kts
12-Aug-17 20:06 33.679780 -117.863995 299 59ft 5kts
12-Aug-17 20:07 33.667281 -117.872370 195 626ft 76kts
12-Aug-17 20:08 33.646711 -117.875546 185 1724ft 75kts
12-Aug-17 20:09 33.624895 -117.878100 184 2689ft 82kts
12-Aug-17 20:10 33.602930 -117.880354 187 3655ft 81kts
12-Aug-17 20:11 33.579854 -117.878797 141 4474ft 91kts
12-Aug-17 20:12 33.567059 -117.850063 113 4980ft 124kts
12-Aug-17 20:13 33.552549 -117.808889 110 4896ft 131kts
12-Aug-17 20:14 33.539285 -117.770521 110 5042ft 123kts
12-Aug-17 20:15 33.525432 -117.730454 110 5026ft 133kts
12-Aug-17 20:16 33.511354 -117.689434 110 5014ft 130kts
12-Aug-17 20:17 33.497743 -117.649753 110 5007ft 128kts
12-Aug-17 20:18 33.476649 -117.615391 143 4911ft 131kts
12-Aug-17 20:19 33.446433 -117.592466 149 4965ft 125kts
12-Aug-17 20:20 33.415592 -117.570168 149 4966ft 131kts
12-Aug-17 20:21 33.384053 -117.547399 149 4969ft 132kts
12-Aug-17 20:22 33.352763 -117.524438 144 4969ft 132kts
12-Aug-17 20:23 33.322690 -117.499016 148 4972ft 132kts
12-Aug-17 20:24 33.291841 -117.474790 136 4972ft 133kts
12-Aug-17 20:25 33.265002 -117.444264 136 4973ft 133kts
12-Aug-17 20:26 33.238847 -117.412885 113 4963ft 133kts
12-Aug-17 20:27 33.234566 -117.369892 93 4973ft 130kts
12-Aug-17 20:28 33.229508 -117.326870 96 4973ft 131kts
12-Aug-17 20:29 33.224522 -117.283680 94 4974ft 131kts
12-Aug-17 20:30 33.219530 -117.240677 95 4975ft 130kts
12-Aug-17 20:31 33.223096 -117.197942 77 4501ft 132kts
12-Aug-17 20:32 33.230642 -117.155368 77 3736ft 125kts
12-Aug-17 20:33 33.237738 -117.116778 77 3484ft 114kts
12-Aug-17 20:34 33.244520 -117.080192 77 3498ft 111kts
12-Aug-17 20:35 33.244209 -117.044968 142 3470ft 114kts
12-Aug-17 20:36 33.216120 -117.029004 155 3500ft 110kts
12-Aug-17 20:37 33.187774 -117.014752 178 3413ft 116kts
12-Aug-17 20:38 33.165725 -117.038467 237 3560ft 106kts
12-Aug-17 20:39 33.159383 -117.074885 267 2954ft 111kts
12-Aug-17 20:40 33.155040 -117.110984 261 2130ft 105kts
12-Aug-17 20:41 33.149392 -117.143678 256 2409ft 99kts
12-Aug-17 20:42 33.144906 -117.176465 262 2007ft 100kts
12-Aug-17 20:43 33.139555 -117.207198 264 1506ft 92kts
12-Aug-17 20:44 33.134559 -117.237914 255 948ft 95kts
12-Aug-17 20:45 33.130625 -117.264940 259 492ft 70kts
12-Aug-17 20:46 33.128189 -117.278992 164 334ft 8kts
12-Aug-17 20:47 33.127961 -117.278707 118 334ft 0kts
12-Aug-17 20:48 33.127425 -117.277622 166 334ft 13kts
12-Aug-17 20:49 33.126738 -117.277190 76 334ft 0kts

Navigation Log

Ident Type
1. KSNA Airport
2. OCN Navaid
3. KCRQ Airport